METAR

Letisková meteorologická správa METAR

Meteorologické informácie z ďalších profesionálnych meteorologických staníc SHMÚ zobrazené v tvare zodpovedajúcom pravidlám kódovania správ METAR sú uvedené v položke „METSYN

Informácie o správe METAR

17.02.2020 - 04:30 UTC

METAR LZIB 170430Z 02008KT CAVOK 03/01 Q1020=
METAR LZKZ 170430Z 22007KT CAVOK 03/M00 Q1024=
METAR LZPP 170430Z AUTO 13011KT 9999 NCD 07/01 Q1021=
METAR LZSL 170430Z 04007KT CAVOK 02/M01 Q1023=
METAR LZTT 170430Z 21008KT 160V240 CAVOK 05/M01 Q1019=
METAR LZZI 170430Z VRB01KT CAVOK 02/M00 Q1020=

17.02.2020 - 04:00 UTC

METAR LZIB 170400Z 03010KT CAVOK 03/01 Q1020 WS R31=
METAR LZKZ 170400Z 18003KT CAVOK 01/M00 Q1024=
METAR LZPP 170400Z AUTO 13013KT 9999 NCD 07/01 Q1021=
METAR LZSL 170400Z 07005KT CAVOK 02/M01 Q1023=
METAR LZTT 170400Z 15005KT CAVOK 01/M02 Q1020=
METAR LZZI 170400Z VRB02KT CAVOK 02/00 Q1019=

17.02.2020 - 04:00 UTC

METAR LZMC 170400Z 10008KT CAVOK 05/01 Q1019=
METAR LZPW 170400Z 16016KT CAVOK 05/M00 Q1022=

skok na menu ↑


skok na začiatok stránky ↑